createdAt,value
2018-06-18T00:02:21.640Z,16.83
2018-06-18T00:04:50.975Z,10.03
2018-06-18T00:07:20.557Z,11.27
2018-06-18T00:09:49.746Z,12.57
2018-06-18T00:12:18.932Z,13.10
2018-06-18T00:14:48.948Z,18.83
2018-06-18T00:17:18.389Z,11.07
2018-06-18T00:19:48.979Z,7.90
2018-06-18T00:22:19.119Z,12.73
2018-06-18T00:24:49.588Z,20.67
2018-06-18T00:27:19.195Z,9.40
2018-06-18T00:29:48.688Z,11.73
2018-06-18T00:32:18.301Z,10.00
2018-06-18T00:34:47.830Z,10.83
2018-06-18T00:37:17.258Z,9.80
2018-06-18T00:39:47.367Z,19.67
2018-06-18T00:42:17.032Z,15.60
2018-06-18T00:44:46.485Z,12.60
2018-06-18T00:47:15.986Z,17.87
2018-06-18T00:49:45.740Z,15.83
2018-06-18T00:52:14.880Z,15.37
2018-06-18T00:54:44.401Z,18.03
2018-06-18T00:57:13.872Z,23.50
2018-06-18T00:59:43.408Z,16.00
2018-06-18T01:02:13.249Z,19.83
2018-06-18T01:04:42.739Z,16.57
2018-06-18T01:07:12.687Z,12.67
2018-06-18T01:09:42.598Z,12.93
2018-06-18T01:12:12.173Z,20.23
2018-06-18T01:14:41.761Z,16.60
2018-06-18T01:17:11.276Z,8.40
2018-06-18T01:19:41.383Z,17.70
2018-06-18T01:22:10.893Z,12.13
2018-06-18T01:24:55.795Z,18.73
2018-06-18T01:27:25.371Z,10.67
2018-06-18T01:29:55.253Z,10.17
2018-06-18T01:32:26.207Z,11.77
2018-06-18T01:34:55.869Z,11.73
2018-06-18T01:37:26.005Z,11.33
2018-06-18T01:39:55.463Z,12.73
2018-06-18T01:42:25.198Z,4.83
2018-06-18T01:44:54.695Z,6.83
2018-06-18T01:47:24.243Z,12.73
2018-06-18T01:49:54.024Z,12.27
2018-06-18T01:52:23.542Z,7.87
2018-06-18T01:54:53.069Z,14.53
2018-06-18T01:57:22.489Z,10.07
2018-06-18T01:59:52.357Z,13.23
2018-06-18T02:02:21.953Z,7.80
2018-06-18T02:04:51.553Z,10.93
2018-06-18T02:07:21.079Z,11.37
2018-06-18T02:09:51.171Z,9.87
2018-06-18T02:12:20.594Z,14.90
2018-06-18T02:14:50.076Z,12.70
2018-06-18T02:17:19.921Z,11.30
2018-06-18T02:19:49.420Z,13.13
2018-06-18T02:22:19.050Z,10.93
2018-06-18T02:24:48.618Z,16.03
2018-06-18T02:27:19.197Z,12.60
2018-06-18T02:29:53.874Z,12.70
2018-06-18T02:32:28.637Z,16.47
2018-06-18T02:35:03.461Z,12.67
2018-06-18T02:37:38.174Z,8.30
2018-06-18T02:40:12.861Z,10.10
2018-06-18T02:42:42.819Z,16.60
2018-06-18T02:45:12.906Z,10.40
2018-06-18T02:47:43.025Z,9.30
2018-06-18T02:50:12.508Z,16.80
2018-06-18T02:52:41.926Z,12.20
2018-06-18T02:55:11.409Z,12.63
2018-06-18T02:57:41.330Z,18.67
2018-06-18T03:00:11.805Z,16.97
2018-06-18T03:02:41.319Z,12.00
2018-06-18T03:05:10.870Z,11.50
2018-06-18T03:07:40.499Z,14.80
2018-06-18T03:10:09.965Z,11.17
2018-06-18T03:12:39.593Z,9.47
2018-06-18T03:15:09.165Z,11.77
2018-06-18T03:17:38.764Z,14.30
2018-06-18T03:20:13.944Z,13.60
2018-06-18T03:22:48.600Z,13.77
2018-06-18T03:25:23.531Z,17.00
2018-06-18T03:27:58.721Z,13.53
2018-06-18T03:30:28.571Z,13.13
2018-06-18T03:32:58.283Z,15.37
2018-06-18T03:35:27.981Z,13.07
2018-06-18T03:37:58.924Z,16.83
2018-06-18T03:40:28.400Z,18.60
2018-06-18T03:42:57.867Z,10.90
2018-06-18T03:45:31.057Z,20.70
2018-06-18T03:48:05.528Z,22.13
2018-06-18T03:50:35.326Z,16.70
2018-06-18T03:53:05.458Z,11.20
2018-06-18T03:55:58.568Z,12.20
2018-06-18T03:58:27.788Z,17.47
2018-06-18T04:01:29.817Z,14.50
2018-06-18T04:04:08.416Z,17.20
2018-06-18T04:06:43.210Z,11.10
2018-06-18T04:09:18.167Z,14.83
2018-06-18T04:11:52.670Z,9.00
2018-06-18T04:14:22.249Z,24.33
2018-06-18T04:16:52.239Z,14.27
2018-06-18T04:19:22.190Z,11.27
2018-06-18T04:21:51.869Z,17.83
2018-06-18T04:24:21.358Z,12.00
2018-06-18T04:26:51.068Z,12.37
2018-06-18T04:29:22.716Z,16.70
2018-06-18T04:31:54.253Z,15.17
2018-06-18T04:34:32.199Z,17.03
2018-06-18T04:37:01.684Z,16.60
2018-06-18T04:39:31.382Z,14.37
2018-06-18T04:42:06.228Z,13.13
2018-06-18T04:44:40.954Z,15.10
2018-06-18T04:47:15.708Z,19.50
2018-06-18T04:49:50.322Z,15.57
2018-06-18T04:52:19.858Z,16.13
2018-06-18T04:54:49.316Z,18.90
2018-06-18T04:57:18.885Z,13.37
2018-06-18T05:00:29.088Z,17.90
2018-06-18T05:02:59.143Z,11.13
2018-06-18T05:05:28.613Z,11.10
2018-06-18T05:08:12.896Z,12.87
2018-06-18T05:10:42.385Z,14.33
2018-06-18T05:13:11.942Z,18.67
2018-06-18T05:15:42.125Z,14.77
2018-06-18T05:18:11.865Z,17.83
2018-06-18T05:20:41.569Z,22.00
2018-06-18T05:23:17.310Z,15.53
2018-06-18T05:25:53.899Z,47.93
2018-06-18T05:28:24.034Z,12.77
2018-06-18T05:30:53.587Z,20.60
2018-06-18T05:33:23.102Z,15.33
2018-06-18T05:35:53.345Z,16.77
2018-06-18T05:38:26.987Z,14.87
2018-06-18T05:40:57.345Z,12.77
2018-06-18T05:43:26.854Z,13.50
2018-06-18T05:45:56.411Z,12.20
2018-06-18T05:48:26.001Z,14.83
2018-06-18T05:50:55.674Z,13.10
2018-06-18T05:53:25.304Z,17.37
2018-06-18T05:55:54.956Z,12.10
2018-06-18T05:58:24.668Z,11.90
2018-06-18T06:00:55.202Z,19.27
2018-06-18T06:03:25.188Z,19.93
2018-06-18T06:05:54.944Z,14.20
2018-06-18T06:08:24.330Z,21.00
2018-06-18T06:10:53.747Z,18.73
2018-06-18T06:13:23.509Z,17.53
2018-06-18T06:15:53.005Z,15.33
2018-06-18T06:18:22.496Z,15.10
2018-06-18T06:20:59.894Z,16.53
2018-06-18T06:23:29.651Z,14.23
2018-06-18T06:25:59.346Z,24.43
2018-06-18T06:28:28.862Z,17.70
2018-06-18T06:30:58.358Z,20.33
2018-06-18T06:33:28.421Z,14.80
2018-06-18T06:36:00.023Z,22.77
2018-06-18T06:38:29.628Z,16.20
2018-06-18T06:41:00.158Z,14.70
2018-06-18T06:43:29.634Z,12.07
2018-06-18T06:45:59.818Z,10.50
2018-06-18T06:48:29.434Z,19.67
2018-06-18T06:50:59.003Z,13.90
2018-06-18T06:53:29.561Z,8.00
2018-06-18T06:55:59.039Z,11.07
2018-06-18T06:58:28.614Z,12.83
2018-06-18T07:00:58.286Z,9.87
2018-06-18T07:03:27.739Z,9.10
2018-06-18T07:05:57.282Z,20.30
2018-06-18T07:08:26.900Z,12.00
2018-06-18T07:10:57.302Z,10.53
2018-06-18T07:13:27.116Z,14.30
2018-06-18T07:15:57.117Z,20.10
2018-06-18T07:18:26.664Z,10.77
2018-06-18T07:20:56.174Z,9.00
2018-06-18T07:23:26.086Z,12.40
2018-06-18T07:25:55.521Z,10.70
2018-06-18T07:28:24.877Z,16.07
2018-06-18T07:30:54.450Z,17.23
2018-06-18T07:33:23.933Z,13.10
2018-06-18T07:35:53.220Z,16.67
2018-06-18T07:38:22.832Z,11.50
2018-06-18T07:40:52.273Z,13.20
2018-06-18T07:43:22.572Z,14.87
2018-06-18T07:45:51.750Z,20.57
2018-06-18T07:48:21.216Z,18.13
2018-06-18T07:50:50.770Z,9.83
2018-06-18T07:53:20.867Z,10.43
2018-06-18T07:55:50.353Z,11.97
2018-06-18T07:58:20.367Z,12.17
2018-06-18T08:00:50.654Z,11.77
2018-06-18T08:03:19.972Z,7.83
2018-06-18T08:05:49.732Z,13.30
2018-06-18T08:08:19.194Z,10.10
2018-06-18T08:10:48.757Z,6.80
2018-06-18T08:13:18.266Z,22.03
2018-06-18T08:15:48.230Z,27.17
2018-06-18T08:18:17.786Z,13.23
2018-06-18T08:20:48.074Z,13.80
2018-06-18T08:23:17.684Z,13.23
2018-06-18T08:25:47.604Z,13.40
2018-06-18T08:28:17.114Z,11.73
2018-06-18T08:30:47.429Z,15.10
2018-06-18T08:33:17.091Z,9.03
2018-06-18T08:35:46.707Z,9.83
2018-06-18T08:38:16.051Z,13.90
2018-06-18T08:40:45.508Z,13.87
2018-06-18T08:43:14.997Z,20.67
2018-06-18T08:45:44.631Z,14.17
2018-06-18T08:48:18.676Z,15.23
2018-06-18T08:50:53.254Z,14.80
2018-06-18T08:53:27.962Z,21.33
2018-06-18T08:56:03.109Z,14.37
2018-06-18T08:58:38.468Z,11.60
2018-06-18T09:01:08.626Z,15.83
2018-06-18T09:03:43.417Z,7.47
2018-06-18T09:06:12.899Z,14.07
2018-06-18T09:08:47.611Z,8.33
2018-06-18T09:11:18.122Z,12.30
2018-06-18T09:13:47.801Z,8.10
2018-06-18T09:16:17.740Z,13.53
2018-06-18T09:18:47.682Z,14.40
2018-06-18T09:21:17.196Z,14.00
2018-06-18T09:23:46.838Z,13.33
2018-06-18T09:26:17.344Z,19.40
2018-06-18T09:28:46.947Z,12.90
2018-06-18T09:31:16.388Z,21.30
2018-06-18T09:33:46.342Z,11.80
2018-06-18T09:36:15.889Z,20.53
2018-06-18T09:38:45.984Z,18.67
2018-06-18T09:41:15.513Z,17.73
2018-06-18T09:43:44.952Z,14.43
2018-06-18T09:46:14.366Z,19.20
2018-06-18T09:48:49.986Z,19.13
2018-06-18T09:51:24.831Z,21.90
2018-06-18T09:53:59.745Z,17.80
2018-06-18T09:56:35.002Z,29.03
2018-06-18T09:59:09.779Z,14.00
2018-06-18T10:01:39.305Z,20.60
2018-06-18T10:04:08.792Z,17.63
2018-06-18T10:06:39.860Z,16.47
2018-06-18T10:09:12.283Z,19.40
2018-06-18T10:11:42.262Z,15.97
2018-06-18T10:14:13.018Z,22.13
2018-06-18T10:16:42.454Z,14.17
2018-06-18T10:19:11.749Z,11.87
2018-06-18T10:21:41.634Z,16.63
2018-06-18T10:24:11.169Z,14.97
2018-06-18T10:26:40.821Z,14.73
2018-06-18T10:29:11.079Z,11.93
2018-06-18T10:31:41.210Z,12.13
2018-06-18T10:34:15.970Z,11.37
2018-06-18T10:36:50.643Z,13.20
2018-06-18T10:39:25.511Z,15.70
2018-06-18T10:42:00.559Z,19.57
2018-06-18T10:44:30.614Z,11.23
2018-06-18T10:47:00.117Z,9.80
2018-06-18T10:49:29.618Z,16.17
2018-06-18T10:51:59.160Z,10.60
2018-06-18T10:54:28.963Z,19.57
2018-06-18T10:56:58.428Z,8.60
2018-06-18T10:59:28.682Z,13.43
2018-06-18T11:01:58.201Z,12.33
2018-06-18T11:04:31.176Z,8.40
2018-06-18T11:07:00.882Z,17.67
2018-06-18T11:09:31.320Z,10.23
2018-06-18T11:12:01.735Z,9.10
2018-06-18T11:14:31.311Z,14.83
2018-06-18T11:17:07.322Z,9.20
2018-06-18T11:19:41.767Z,12.63
2018-06-18T11:22:11.510Z,12.47
2018-06-18T11:24:49.473Z,17.60
2018-06-18T11:27:19.008Z,12.53
2018-06-18T11:29:49.243Z,7.70
2018-06-18T11:32:19.787Z,13.10
2018-06-18T11:34:49.319Z,9.67
2018-06-18T11:37:18.946Z,11.13
2018-06-18T11:39:50.441Z,10.60
2018-06-18T11:42:20.293Z,11.07
2018-06-18T11:44:50.181Z,25.53
2018-06-18T11:47:20.238Z,9.73
2018-06-18T11:49:49.660Z,9.83
2018-06-18T11:52:19.190Z,9.90
2018-06-18T11:54:48.538Z,17.10
2018-06-18T11:57:18.161Z,10.53
2018-06-18T11:59:53.680Z,12.50
2018-06-18T12:02:28.799Z,11.10
2018-06-18T12:05:04.092Z,7.97
2018-06-18T12:07:38.829Z,9.33
2018-06-18T12:10:08.513Z,22.17
2018-06-18T12:12:38.256Z,7.37
2018-06-18T12:15:07.837Z,6.40
2018-06-18T12:17:38.517Z,4.93
2018-06-18T12:20:07.709Z,5.10
2018-06-18T12:22:37.616Z,7.30
2018-06-18T12:25:07.189Z,3.93
2018-06-18T12:27:37.240Z,3.97
2018-06-18T12:30:06.793Z,7.63
2018-06-18T12:32:36.733Z,10.03
2018-06-18T12:35:06.239Z,7.30
2018-06-18T12:37:36.180Z,6.90
2018-06-18T12:40:05.768Z,5.23
2018-06-18T12:42:35.226Z,8.53
2018-06-18T12:46:08.293Z,5.07
2018-06-18T12:48:43.050Z,4.90
2018-06-18T12:51:17.661Z,7.00
2018-06-18T12:53:53.016Z,10.83
2018-06-18T12:56:28.412Z,7.63
2018-06-18T12:58:57.957Z,5.70
2018-06-18T13:01:31.197Z,5.43
2018-06-18T13:04:01.417Z,6.30
2018-06-18T13:06:30.958Z,6.13
2018-06-18T13:09:00.488Z,8.00
2018-06-18T13:11:30.210Z,6.53
2018-06-18T13:13:59.368Z,5.00
2018-06-18T13:16:29.346Z,5.03
2018-06-18T13:18:58.876Z,5.27
2018-06-18T13:21:28.426Z,7.30
2018-06-18T13:23:57.989Z,5.47
2018-06-18T13:26:28.142Z,15.30
2018-06-18T13:28:57.833Z,5.30
2018-06-18T13:31:27.335Z,7.70
2018-06-18T13:33:57.079Z,5.83
2018-06-18T13:36:26.541Z,8.43
2018-06-18T13:40:03.398Z,7.67
2018-06-18T13:42:38.895Z,8.33
2018-06-18T13:45:14.161Z,10.90
2018-06-18T13:47:48.983Z,7.70
2018-06-18T13:50:18.784Z,6.17
2018-06-18T13:52:48.399Z,7.93
2018-06-18T13:55:17.901Z,6.73
2018-06-18T13:57:48.552Z,6.90
2018-06-18T14:00:19.580Z,8.07
2018-06-18T14:02:49.270Z,8.90
2018-06-18T14:05:19.291Z,8.93
2018-06-18T14:07:48.885Z,7.37
2018-06-18T14:10:18.938Z,7.10
2018-06-18T14:12:48.381Z,8.47
2018-06-18T14:15:17.769Z,9.80
2018-06-18T14:17:47.510Z,6.60
2018-06-18T14:20:26.407Z,7.73
2018-06-18T14:22:56.027Z,7.80
2018-06-18T14:25:25.480Z,8.60
2018-06-18T14:27:55.004Z,6.87
2018-06-18T14:30:29.764Z,9.50
2018-06-18T14:33:04.930Z,8.27
2018-06-18T14:35:39.754Z,6.63
2018-06-18T14:38:15.007Z,10.97
2018-06-18T14:40:45.088Z,6.73
2018-06-18T14:43:15.069Z,12.33
2018-06-18T14:45:44.795Z,7.93
2018-06-18T14:48:14.476Z,7.00
2018-06-18T14:50:44.138Z,14.73
2018-06-18T14:53:14.405Z,8.13
2018-06-18T14:55:46.909Z,12.63
2018-06-18T14:58:16.769Z,8.57
2018-06-18T15:00:45.999Z,11.93
2018-06-18T15:03:15.450Z,7.60
2018-06-18T15:05:44.871Z,11.43
2018-06-18T15:08:14.171Z,12.00
2018-06-18T15:10:49.338Z,10.53
2018-06-18T15:13:18.962Z,10.63
2018-06-18T15:15:53.766Z,10.87
2018-06-18T15:18:23.326Z,12.87
2018-06-18T15:20:56.752Z,16.13
2018-06-18T15:23:26.197Z,10.30
2018-06-18T15:25:55.908Z,19.67
2018-06-18T15:28:25.022Z,14.37
2018-06-18T15:30:54.543Z,11.93
2018-06-18T15:33:23.969Z,12.97
2018-06-18T15:35:53.557Z,14.13
2018-06-18T15:38:23.260Z,13.17
2018-06-18T15:40:52.668Z,9.67
2018-06-18T15:43:22.781Z,9.53
2018-06-18T15:45:52.300Z,9.70
2018-06-18T15:48:21.931Z,11.03
2018-06-18T15:50:51.431Z,11.73
2018-06-18T15:53:20.904Z,17.50
2018-06-18T15:55:50.469Z,13.63
2018-06-18T15:58:19.864Z,13.03
2018-06-18T16:00:49.732Z,14.53
2018-06-18T16:03:19.262Z,13.90
2018-06-18T16:05:49.179Z,6.23
2018-06-18T16:08:18.662Z,7.70
2018-06-18T16:10:48.205Z,7.00
2018-06-18T16:13:17.996Z,11.97
2018-06-18T16:15:47.655Z,8.30
2018-06-18T16:18:17.130Z,9.33
2018-06-18T16:20:46.621Z,8.47
2018-06-18T16:23:16.217Z,16.27
2018-06-18T16:25:46.041Z,6.80
2018-06-18T16:28:15.970Z,9.90
2018-06-18T16:30:46.973Z,11.07
2018-06-18T16:33:17.364Z,6.80
2018-06-18T16:35:46.794Z,9.60
2018-06-18T16:38:17.009Z,9.00
2018-06-18T16:40:47.054Z,5.93
2018-06-18T16:43:17.360Z,16.17
2018-06-18T16:45:47.282Z,7.27
2018-06-18T16:48:16.908Z,10.60
2018-06-18T16:50:48.253Z,6.00
2018-06-18T16:53:19.327Z,7.90
2018-06-18T16:55:49.188Z,10.00
2018-06-18T16:58:20.433Z,7.33
2018-06-18T17:00:50.489Z,5.87
2018-06-18T17:03:20.320Z,11.10
2018-06-18T17:05:50.841Z,10.10
2018-06-18T17:08:21.736Z,7.70
2018-06-18T17:10:51.649Z,6.70
2018-06-18T17:13:21.369Z,13.53
2018-06-18T17:15:50.794Z,7.47
2018-06-18T17:18:22.065Z,4.90
2018-06-18T17:20:51.845Z,11.90
2018-06-18T17:23:21.974Z,6.67
2018-06-18T17:25:52.366Z,5.83
2018-06-18T17:28:21.499Z,6.70
2018-06-18T17:30:51.006Z,11.50
2018-06-18T17:33:21.170Z,7.50
2018-06-18T17:35:50.730Z,5.20
2018-06-18T17:38:20.299Z,6.60
2018-06-18T17:40:50.220Z,7.40
2018-06-18T17:43:19.431Z,5.07
2018-06-18T17:45:49.172Z,7.60
2018-06-18T17:48:19.613Z,6.93
2018-06-18T17:50:48.838Z,7.47
2018-06-18T17:53:18.567Z,6.57
2018-06-18T17:55:48.654Z,8.83
2018-06-18T17:58:18.392Z,6.37
2018-06-18T18:00:47.743Z,13.03
2018-06-18T18:03:17.266Z,17.07
2018-06-18T18:05:46.768Z,19.20
2018-06-18T18:08:16.240Z,19.60
2018-06-18T18:10:46.001Z,21.07
2018-06-18T18:13:15.531Z,22.70
2018-06-18T18:15:44.941Z,23.90
2018-06-18T18:18:14.959Z,21.40
2018-06-18T18:20:44.652Z,23.50
2018-06-18T18:23:14.651Z,16.80
2018-06-18T18:25:45.114Z,19.80
2018-06-18T18:28:15.207Z,19.40
2018-06-18T18:30:45.118Z,24.37
2018-06-18T18:33:14.610Z,22.83
2018-06-18T18:35:44.755Z,27.53
2018-06-18T18:38:14.906Z,32.90
2018-06-18T18:40:44.187Z,26.50
2018-06-18T18:43:13.868Z,33.97
2018-06-18T18:45:43.400Z,36.57
2018-06-18T18:48:12.885Z,35.90
2018-06-18T18:50:43.506Z,31.43
2018-06-18T18:53:13.017Z,32.57
2018-06-18T18:56:02.892Z,31.50
2018-06-18T18:59:03.261Z,27.33
2018-06-18T19:01:32.888Z,34.53
2018-06-18T19:04:06.257Z,34.13
2018-06-18T19:06:37.235Z,37.30
2018-06-18T19:09:09.883Z,40.43
2018-06-18T19:11:40.150Z,33.27
2018-06-18T19:14:09.809Z,33.27
2018-06-18T19:16:39.397Z,38.17
2018-06-18T19:19:08.929Z,40.73
2018-06-18T19:21:39.159Z,33.27
2018-06-18T19:24:08.810Z,37.67
2018-06-18T19:26:38.348Z,39.70
2018-06-18T19:29:07.861Z,43.40
2018-06-18T19:31:37.422Z,44.20
2018-06-18T19:34:13.132Z,47.27
2018-06-18T19:36:47.851Z,45.93
2018-06-18T19:39:17.687Z,37.73
2018-06-18T19:41:47.152Z,32.00
2018-06-18T19:44:16.691Z,34.40
2018-06-18T19:47:54.243Z,32.70
2018-06-18T19:50:24.071Z,42.07
2018-06-18T19:52:53.578Z,40.77
2018-06-18T19:55:26.788Z,32.97
2018-06-18T19:57:57.259Z,35.17
2018-06-18T20:00:37.985Z,33.00
2018-06-18T20:03:08.403Z,31.67
2018-06-18T20:05:37.934Z,38.70
2018-06-18T20:08:11.791Z,51.67
2018-06-18T20:10:42.420Z,46.00
2018-06-18T20:13:12.785Z,37.80
2018-06-18T20:15:42.938Z,40.60
2018-06-18T20:18:12.457Z,41.17
2018-06-18T20:20:42.965Z,41.77
2018-06-18T20:23:19.373Z,35.00
2018-06-18T20:25:54.373Z,44.80
2018-06-18T20:28:24.716Z,45.07
2018-06-18T20:30:54.700Z,51.40
2018-06-18T20:33:24.963Z,42.20
2018-06-18T20:36:03.594Z,40.83
2018-06-18T20:38:33.874Z,38.80
2018-06-18T20:41:03.555Z,34.57
2018-06-18T20:43:48.886Z,38.43
2018-06-18T20:46:20.490Z,38.83
2018-06-18T20:48:51.058Z,39.03
2018-06-18T20:51:22.640Z,35.03
2018-06-18T20:53:52.058Z,45.93
2018-06-18T20:56:22.121Z,38.70
2018-06-18T20:58:51.629Z,38.67
2018-06-18T21:01:21.378Z,40.73
2018-06-18T21:03:50.850Z,48.73
2018-06-18T21:06:20.362Z,45.13
2018-06-18T21:08:50.500Z,47.10
2018-06-18T21:11:19.958Z,36.20
2018-06-18T21:13:49.775Z,48.00
2018-06-18T21:16:19.501Z,43.40
2018-06-18T21:18:50.277Z,50.47
2018-06-18T21:21:19.465Z,52.77
2018-06-18T21:23:48.960Z,36.43
2018-06-18T21:26:19.211Z,40.67
2018-06-18T21:28:48.704Z,33.33
2018-06-18T21:31:18.293Z,37.70
2018-06-18T21:33:47.791Z,34.90
2018-06-18T21:36:18.608Z,34.70
2018-06-18T21:38:48.749Z,31.63
2018-06-18T21:41:18.288Z,36.30
2018-06-18T21:43:47.849Z,34.47
2018-06-18T21:46:18.161Z,36.77
2018-06-18T21:48:48.583Z,36.00
2018-06-18T21:51:18.113Z,32.57
2018-06-18T21:53:47.690Z,33.53
2018-06-18T21:56:17.155Z,31.80
2018-06-18T21:58:46.863Z,27.67
2018-06-18T22:01:27.308Z,31.30
2018-06-18T22:03:56.940Z,28.80
2018-06-18T22:06:26.637Z,34.47
2018-06-18T22:08:56.998Z,39.20
2018-06-18T22:11:26.507Z,41.70
2018-06-18T22:13:55.779Z,38.17
2018-06-18T22:16:25.230Z,34.77
2018-06-18T22:18:55.001Z,37.00
2018-06-18T22:21:24.461Z,40.00
2018-06-18T22:23:53.998Z,42.73
2018-06-18T22:26:23.660Z,40.33
2018-06-18T22:28:53.239Z,42.83
2018-06-18T22:31:23.552Z,38.73
2018-06-18T22:33:53.306Z,43.57
2018-06-18T22:36:22.737Z,31.60
2018-06-18T22:38:52.253Z,34.00
2018-06-18T22:41:22.537Z,40.17
2018-06-18T22:43:52.732Z,35.50
2018-06-18T22:46:22.169Z,35.90
2018-06-18T22:48:51.938Z,30.43
2018-06-18T22:51:22.029Z,39.77
2018-06-18T22:53:51.712Z,40.53
2018-06-18T22:56:21.342Z,44.50
2018-06-18T22:58:51.072Z,33.90
2018-06-18T23:01:20.693Z,43.23
2018-06-18T23:03:50.297Z,34.37
2018-06-18T23:06:19.936Z,38.73
2018-06-18T23:08:49.511Z,34.57
2018-06-18T23:11:19.835Z,38.43
2018-06-18T23:13:49.355Z,30.80
2018-06-18T23:16:20.059Z,36.83
2018-06-18T23:18:49.974Z,31.43
2018-06-18T23:21:19.601Z,30.20
2018-06-18T23:23:49.160Z,29.53
2018-06-18T23:26:18.459Z,39.67
2018-06-18T23:28:53.428Z,40.67
2018-06-18T23:31:23.382Z,34.03
2018-06-18T23:33:53.906Z,38.27
2018-06-18T23:36:23.389Z,38.30
2018-06-18T23:38:53.108Z,38.27
2018-06-18T23:41:24.596Z,29.30
2018-06-18T23:43:54.401Z,34.47
2018-06-18T23:46:23.879Z,40.57
2018-06-18T23:48:55.711Z,40.30
2018-06-18T23:51:25.455Z,55.77
2018-06-18T23:53:54.947Z,39.87
2018-06-18T23:56:24.536Z,48.13
2018-06-18T23:58:54.149Z,48.70
